Trosper, Kentucky
Current Conditions -  °F | °C
As of 5:35 AM on Thursday 23 Oct 2014 (Local Time) from K1A6 Reporting Station
Overcast Overcast  
Wind Chill: 48°   Ceiling: 2600
Heat Index: 48°   Visibility: 10mi
Dew Point: 40°   Wind: 3mph
Humidity: 76%   Direction: 20°NNE
Pressure: 30.21"   Gusts: NA
Location:  36.79°N, 83.82°W
Report Text: K1A6 230935Z AUTO 02003KT 10SM OVC026 09/05 A3021 RMK AO2 T00870046
Loading
Personal Weather Stations






























Interactive Weather Map
Tropical Storm Tracking
New forecast layout! Learn more

10-Day Weather Forecast

Advertisements
Track Severe Weather on mobile